Time;durP1;ratioP1;P1;durP2;ratioP2;P2;SDS_P1;SDS_P2;PMS_P1;PMS_P2;Temp;Humidity;BMP_temperature;BMP_pressure;BME280_temperature;BME280_humidity;BME280_pressure;Samples;Min_cycle;Max_cycle;Signal;HPM_P1;HPM_P2
2023/10/17 00:01:44;;;;;;;5.82;3.13;;;;;;;;;;4936204;28;20062;-70
2023/10/17 00:06:37;;;;;;;4.18;2.78;;;;;;;;;;4934391;28;20430;-69
2023/10/17 00:09:06;;;;;;;6.82;3.50;;;;;;;;;;4942376;28;20522;-69
2023/10/17 00:11:44;;;;;;;7.82;3.40;;;5.80;99.90;;;;;;4960970;28;20047;-69
2023/10/17 00:14:11;;;;;;;6.25;3.60;;;;;;;;;;4961225;28;20047;-68
2023/10/17 00:16:37;;;;;;;5.57;2.90;;;5.80;99.90;;;;;;4948480;28;20042;-69
2023/10/17 00:19:09;;;;;;;5.88;3.22;;;;;;;;;;4945797;28;20147;-68
2023/10/17 00:21:36;;;;;;;7.82;3.28;;;;;;;;;;4963991;28;20057;-69
2023/10/17 00:24:08;;;;;;;3.63;2.35;;;;;;;;;;4959841;28;20078;-69
2023/10/17 00:26:35;;;;;;;5.90;2.70;;;;;;;;;;4948347;28;20043;-68
2023/10/17 00:29:05;;;;;;;5.10;2.85;;;;;;;;;;4945406;28;20057;-70
2023/10/17 00:31:31;;;;;;;3.20;2.25;;;;;;;;;;4963998;28;20495;-68
2023/10/17 00:34:00;;;;;;;3.05;2.15;;;;;;;;;;4961312;28;20051;-70
2023/10/17 00:36:26;;;;;;;2.88;2.08;;;;;;;;;;4943347;28;20046;-69
2023/10/17 00:39:08;;;;;;;4.32;2.10;;;5.40;99.90;;;;;;4943296;28;20050;-69
2023/10/17 00:41:50;;;;;;;4.72;3.00;;;;;;;;;;4958797;28;20556;-69
2023/10/17 00:44:24;;;;;;;4.97;2.80;;;;;;;;;;4959472;28;20532;-70
2023/10/17 00:46:50;;;;;;;3.15;2.17;;;;;;;;;;4962533;28;20055;-69
2023/10/17 00:49:16;;;;;;;5.82;2.85;;;;;;;;;;4946321;28;20116;-69
2023/10/17 00:51:42;;;;;;;5.35;2.85;;;;;;;;;;4937348;28;20046;-69
2023/10/17 00:54:18;;;;;;;4.47;3.00;;;;;;;;;;4962218;28;20054;-69
2023/10/17 00:56:44;;;;;;;;;;;;;;;;;;4948329;28;20104;-69
2023/10/17 00:59:09;;;;;;;4.72;2.65;;;5.60;99.90;;;;;;4964297;28;19922;-69
2023/10/17 01:01:35;;;;;;;3.92;2.38;;;;;;;;;;4962390;28;20049;-69
2023/10/17 01:04:02;;;;;;;4.20;2.67;;;;;;;;;;4944424;28;20059;-68
2023/10/17 01:09:08;;;;;;;4.82;2.90;;;;;;;;;;4963836;28;20049;-68
2023/10/17 01:11:38;;;;;;;4.10;2.60;;;5.80;99.90;;;;;;4948874;28;20057;-68
2023/10/17 01:14:05;;;;;;;3.13;2.70;;;;;;;;;;4944709;28;20516;-69
2023/10/17 01:16:34;;;;;;;5.00;2.58;;;5.60;99.90;;;;;;4946695;28;20051;-69
2023/10/17 01:19:04;;;;;;;5.22;2.60;;;;;;;;;;4965668;28;20039;-68
2023/10/17 01:21:31;;;;;;;5.30;2.40;;;;;;;;;;4946225;28;20054;-69
2023/10/17 01:23:57;;;;;;;3.90;2.20;;;;;;;;;;4963718;28;20943;-68
2023/10/17 01:26:23;;;;;;;3.33;2.38;;;;;;;;;;4963242;28;20123;-69
2023/10/17 01:28:50;;;;;;;3.58;2.13;;;;;;;;;;4965530;28;20038;-68
2023/10/17 01:31:22;;;;;;;3.38;2.08;;;;;;;;;;4940225;28;20812;-68
2023/10/17 01:33:48;;;;;;;3.85;2.00;;;;;;;;;;4942739;28;20054;-69
2023/10/17 01:36:16;;;;;;;1.90;1.70;;;;;;;;;;4943706;28;20067;-69
2023/10/17 01:38:42;;;;;;;1.58;1.48;;;;;;;;;;4967170;28;20081;-70
2023/10/17 01:41:11;;;;;;;1.85;1.50;;;;;;;;;;4962917;28;20607;-68
2023/10/17 01:43:41;;;;;;;5.82;1.77;;;;;;;;;;4944182;28;20457;-68
2023/10/17 01:46:14;;;;;;;2.90;2.25;;;;;;;;;;4942202;28;20050;-69
2023/10/17 01:48:44;;;;;;;3.28;2.28;;;;;;;;;;4944901;28;20122;-68
2023/10/17 01:51:12;;;;;;;4.25;1.83;;;;;;;;;;4961291;28;20091;-68
2023/10/17 01:53:39;;;;;;;2.30;2.03;;;;;;;;;;4943778;28;20130;-69
2023/10/17 01:56:13;;;;;;;12.10;3.13;;;;;;;;;;4964283;28;20050;-69
2023/10/17 01:58:42;;;;;;;4.07;1.73;;;;;;;;;;4944333;28;20485;-68
2023/10/17 02:01:12;;;;;;;3.50;1.60;;;;;;;;;;4946441;28;21236;-68
2023/10/17 02:03:39;;;;;;;6.07;1.80;;;;;;;;;;4954118;28;20051;-69
2023/10/17 02:06:17;;;;;;;6.03;2.85;;;;;;;;;;4955820;28;20055;-68
2023/10/17 02:08:43;;;;;;;5.75;1.85;;;;;;;;;;4939858;28;20054;-68
2023/10/17 02:11:32;;;;;;;5.60;1.77;;;;;;;;;;4940926;28;20130;-68
2023/10/17 02:13:59;;;;;;;3.33;1.85;;;;;;;;;;4964565;28;20043;-69
2023/10/17 02:16:28;;;;;;;2.72;2.03;;;;;;;;;;4962041;28;20110;-69
2023/10/17 02:18:54;;;;;;;4.10;2.10;;;;;;;;;;4945247;28;20485;-70
2023/10/17 02:21:23;;;;;;;4.10;2.58;;;;;;;;;;4963905;28;20133;-69
2023/10/17 02:23:49;;;;;;;7.10;2.45;;;;;;;;;;4963563;28;20803;-68
2023/10/17 02:26:22;;;;;;;6.03;2.63;;;;;;;;;;4940450;28;20481;-68
2023/10/17 02:28:49;;;;;;;4.60;2.53;;;;;;;;;;4961628;28;20071;-68
2023/10/17 02:31:16;;;;;;;3.63;2.58;;;;;;;;;;4958193;28;20090;-68
2023/10/17 02:33:42;;;;;;;4.35;2.17;;;;;;;;;;4945611;28;20058;-68
2023/10/17 02:36:12;;;;;;;3.63;2.45;;;;;;;;;;4959874;28;20050;-68
2023/10/17 02:38:38;;;;;;;3.70;2.40;;;;;;;;;;4939933;28;20395;-68
2023/10/17 02:41:07;;;;;;;4.97;2.20;;;;;;;;;;4946506;28;20480;-69
2023/10/17 02:43:37;;;;;;;5.15;2.22;;;;;;;;;;4960726;28;20050;-69
2023/10/17 02:46:04;;;;;;;5.65;1.80;;;;;;;;;;4962904;28;20051;-68
2023/10/17 02:48:37;;;;;;;5.95;2.88;;;;;;;;;;4941496;28;20046;-69
2023/10/17 02:51:03;;;;;;;4.47;2.58;;;;;;;;;;4945517;28;20067;-68
2023/10/17 02:53:34;;;;;;;2.97;2.10;;;;;;;;;;4945908;28;20055;-69
2023/10/17 02:56:18;;;;;;;3.80;2.28;;;;;;;;;;4943964;28;20782;-68
2023/10/17 02:58:50;;;;;;;5.45;2.28;;;;;;;;;;4946096;28;20875;-69
2023/10/17 03:01:15;;;;;;;5.50;2.50;;;4.60;99.90;;;;;;4961740;28;20046;-68
2023/10/17 03:03:42;;;;;;;3.67;2.22;;;;;;;;;;4962305;28;20031;-68
2023/10/17 03:06:15;;;;;;;4.40;2.25;;;;;;;;;;4941853;28;20066;-68
2023/10/17 03:08:42;;;;;;;4.88;2.38;;;;;;;;;;4957573;28;20749;-68
2023/10/17 03:11:08;;;;;;;4.57;1.88;;;;;;;;;;4954250;28;20057;-68
2023/10/17 03:13:40;;;;;;;1.77;1.50;;;;;;;;;;4956818;28;20405;-68
2023/10/17 03:18:51;;;;;;;2.47;2.28;;;;;;;;;;4944188;28;20047;-69
2023/10/17 03:21:29;;;;;;;4.68;2.30;;;;;;;;;;4956288;28;20481;-68
2023/10/17 03:24:00;;;;;;;2.13;1.92;;;;;;;;;;4951714;28;20812;-68
2023/10/17 03:26:26;;;;;;;2.13;1.40;;;;;;;;;;4935969;28;20048;-68
2023/10/17 03:28:52;;;;;;;2.13;1.50;;;;;;;;;;4963787;28;20046;-68
2023/10/17 03:31:21;;;;;;;4.22;2.30;;;;;;;;;;4941421;28;20066;-69
2023/10/17 03:33:53;;;;;;;5.45;1.70;;;;;;;;;;4963054;28;20082;-68
2023/10/17 03:37:26;;;;;;;5.57;2.38;;;;;;;;;;4942757;28;20174;-68
2023/10/17 03:39:21;;;;;;;4.45;2.20;;;;;;;;;;4930832;28;20043;-68
2023/10/17 03:50:41;;;;;;;5.88;2.03;;;;;;;;;;5415068;22;20723;-68
2023/10/17 03:53:14;;;;;;;2.42;1.92;;;;;;;;;;4982210;28;20529;-69
2023/10/17 03:55:42;;;;;;;2.58;1.75;;;;;;;;;;4978090;28;20061;-68
2023/10/17 03:58:24;;;;;;;5.03;2.53;;;;;;;;;;4959885;28;20088;-68
2023/10/17 04:00:54;;;;;;;3.22;2.38;;;;;;;;;;5003071;28;20923;-69
2023/10/17 04:06:14;;;;;;;3.80;2.13;;;;;;;;;;4988546;28;20514;-68
2023/10/17 04:08:49;;;;;;;2.58;2.22;;;;;;;;;;4968403;28;20053;-69
2023/10/17 04:13:56;;;;;;;7.03;2.13;;;;;;;;;;4988149;28;20046;-68
2023/10/17 04:16:39;;;;;;;6.60;2.42;;;;;;;;;;4997307;28;20038;-68
2023/10/17 04:19:07;;;;;;;3.95;1.90;;;;;;;;;;4979871;28;20041;-69
2023/10/17 04:21:38;;;;;;;3.42;2.08;;;;;;;;;;4983354;28;20683;-69
2023/10/17 04:24:09;;;;;;;3.83;1.50;;;;;;;;;;4981335;28;20064;-68
2023/10/17 04:26:35;;;;;;;2.17;1.98;;;;;;;;;;5001712;28;20085;-68
2023/10/17 04:29:11;;;;;;;4.45;2.20;;;;;;;;;;4983928;28;20078;-69
2023/10/17 04:31:43;;;;;;;2.97;1.92;;;;;;;;;;5001010;28;20045;-68
2023/10/17 04:34:14;;;;;;;5.40;2.25;;;;;;;;;;5001789;28;20502;-69
2023/10/17 04:36:41;;;;;;;3.60;2.28;;;;;;;;;;4985595;28;20480;-69
2023/10/17 04:39:11;;;;;;;3.50;2.38;;;;;;;;;;5003530;28;20048;-68
2023/10/17 04:44:23;;;;;;;4.20;2.70;;;;;;;;;;4993663;28;20054;-68
2023/10/17 04:46:50;;;;;;;5.53;2.25;;;;;;;;;;4981920;28;20097;-68
2023/10/17 04:49:20;;;;;;;5.63;2.58;;;;;;;;;;4975706;28;20108;-68
2023/10/17 04:51:53;;;;;;;4.70;2.67;;;;;;;;;;4976034;28;20053;-68
2023/10/17 04:56:59;;;;;;;4.95;2.60;;;;;;;;;;4986843;28;20148;-68
2023/10/17 05:02:49;;;;;;;6.22;2.58;;;;;;;;;;4986473;28;20463;-68
2023/10/17 06:16:52;;;;;;;5.13;3.33;;;;;;;;;;4965734;28;20051;-68
2023/10/17 06:24:46;;;;;;;3.28;2.53;;;;;;;;;;4964081;28;20055;-67
2023/10/17 06:27:43;;;;;;;3.88;3.03;;;;;;;;;;4961037;28;20420;-68
2023/10/17 06:32:49;;;;;;;4.55;2.88;;;;;;;;;;4964672;28;20631;-69
2023/10/17 06:35:22;;;;;;;5.60;2.50;;;;;;;;;;4967414;28;20042;-68
2023/10/17 06:37:49;;;;;;;6.47;2.90;;;;;;;;;;4965806;28;20054;-68
2023/10/17 06:40:18;;;;;;;4.22;2.63;;;;;;;;;;4965255;28;20054;-69
2023/10/17 06:42:58;;;;;;;4.68;3.00;;;;;;;;;;4965943;28;20053;-69
2023/10/17 06:45:24;;;;;;;5.95;2.92;;;;;;;;;;4947854;28;20487;-69
2023/10/17 06:47:56;;;;;;;4.10;2.88;;;;;;;;;;4967208;28;20042;-69
2023/10/17 06:53:31;;;;;;;6.90;3.42;;;;;;;;;;4937534;28;20490;-68
2023/10/17 06:56:09;;;;;;;2.78;2.38;;;;;;;;;;4944536;28;20505;-67
2023/10/17 06:58:36;;;;;;;4.72;3.15;;;;;;;;;;4943369;28;20047;-67
2023/10/17 07:01:05;;;;;;;5.80;3.05;;;;;;;;;;4960995;28;20129;-67
2023/10/17 07:03:34;;;;;;;8.57;3.80;;;;;;;;;;4965281;28;20409;-68
2023/10/17 07:06:20;;;;;;;4.85;3.10;;;;;;;;;;4948623;28;20046;-68
2023/10/17 07:08:46;;;;;;;5.82;4.10;;;;;;;;;;4963832;28;20059;-67
2023/10/17 07:16:34;;;;;;;8.85;3.47;;;;;;;;;;4963182;28;20418;-67
2023/10/17 07:22:05;;;;;;;9.90;3.20;;;;;;;;;;4969202;28;20082;-69
2023/10/17 07:24:36;;;;;;;3.80;3.38;;;;;;;;;;4969286;28;20065;-67
2023/10/17 07:27:11;;;;;;;7.88;4.15;;;;;;;;;;4970146;28;20497;-69
2023/10/17 07:29:37;;;;;;;7.28;3.83;;;;;;;;;;4970443;28;20572;-68
2023/10/17 07:32:09;;;;;;;8.38;3.53;;;;;;;;;;4969227;28;20050;-69
2023/10/17 07:34:36;;;;;;;9.77;4.18;;;;;;;;;;4970069;28;20097;-68
2023/10/17 07:42:31;;;;;;;6.17;4.43;;;;;;;;;;4970912;28;20452;-68
2023/10/17 07:45:02;;;;;;;6.60;4.63;;;;;;;;;;4968716;28;20050;-69
2023/10/17 07:47:34;;;;;;;12.52;5.13;;;;;;;;;;4969652;28;20828;-68
2023/10/17 07:50:00;;;;;;;7.32;4.10;;;;;;;;;;4966888;28;20057;-68
2023/10/17 07:52:30;;;;;;;5.45;3.80;;;;;;;;;;4969112;28;20112;-69
2023/10/17 07:55:17;;;;;;;6.57;3.60;;;;;;;;;;4969088;28;20082;-68
2023/10/17 07:57:44;;;;;;;4.60;3.35;;;;;;;;;;4968832;28;20054;-68
2023/10/17 08:00:26;;;;;;;4.70;3.13;;;;;;;;;;4969634;28;20074;-69
2023/10/17 08:03:00;;;;;;;4.30;2.90;;;;;;;;;;4967645;28;20408;-70
2023/10/17 08:05:36;;;;;;;5.30;3.20;;;;;;;;;;4969039;28;20078;-68
2023/10/17 08:08:13;;;;;;;5.50;2.85;;;;;;;;;;4970448;28;20050;-68
2023/10/17 08:10:39;;;;;;;6.28;3.05;;;;;;;;;;4968416;28;20563;-68
2023/10/17 08:13:09;;;;;;;9.30;3.05;;;;;;;;;;4968265;28;20043;-68
2023/10/17 08:15:53;;;;;;;5.07;2.95;;;;;;;;;;4969296;28;20047;-69
2023/10/17 08:18:22;;;;;;;9.57;3.28;;;9.30;99.90;;;;;;4966984;28;20074;-69
2023/10/17 08:21:33;;;;;;;8.70;3.30;;;;;;;;;;4967706;28;20070;-69
2023/10/17 08:23:46;;;;;;;9.85;3.17;;;;;;;;;;4968253;28;20059;-69
2023/10/17 08:26:17;;;;;;;10.40;3.70;;;;;;;;;;4967591;28;20509;-68
2023/10/17 08:31:27;;;;;;;5.85;3.30;;;;;;;;;;4967023;28;20093;-69
2023/10/17 08:36:45;;;;;;;8.48;2.38;;;10.50;99.90;;;;;;4969459;28;20039;-69
2023/10/17 08:42:50;;;;;;;4.55;3.03;;;;;;;;;;4969676;28;20105;-69
2023/10/17 08:44:53;;;;;;;4.47;2.38;;;;;;;;;;4960441;28;20062;-68
2023/10/17 08:47:24;;;;;;;5.53;2.65;;;;;;;;;;4968156;28;20049;-69
2023/10/17 08:49:50;;;;;;;6.30;3.03;;;;;;;;;;4962940;28;20517;-69
2023/10/17 08:52:22;;;;;;;8.45;2.88;;;12.00;99.90;;;;;;4950320;28;20046;-69
2023/10/17 08:54:49;;;;;;;5.45;2.50;;;;;;;;;;4966513;28;20383;-68
2023/10/17 08:57:15;;;;;;;5.20;2.22;;;;;;;;;;4961206;28;20039;-68
2023/10/17 09:05:18;;;;;;;6.75;2.00;;;13.50;99.90;;;;;;4966184;28;20500;-68
2023/10/17 09:07:48;;;;;;;4.05;1.58;;;14.20;99.90;;;;;;4983918;28;20409;-68
2023/10/17 09:10:39;;;;;;;2.92;1.63;;;15.40;99.90;;;;;;4971000;28;20047;-69
2023/10/17 09:14:14;;;;;;;2.20;1.58;;;16.60;99.90;;;;;;4965983;28;20124;-68
2023/10/17 09:16:13;;;;;;;3.63;1.70;;;17.30;99.90;;;;;;4958685;28;20046;-70
2023/10/17 09:18:49;;;;;;;4.55;1.55;;;18.50;99.90;;;;;;4964028;28;20487;-69
2023/10/17 09:21:16;;;;;;;3.72;1.70;;;17.60;99.90;;;;;;4966787;28;20177;-67
2023/10/17 09:23:42;;;;;;;3.55;1.30;;;;;;;;;;4966511;28;20063;-68
2023/10/17 09:26:10;;;;;;;7.40;1.60;;;20.80;99.90;;;;;;4951317;28;20059;-68
2023/10/17 09:28:42;;;;;;;9.43;1.90;;;21.50;99.90;;;;;;4968199;28;20137;-68
2023/10/17 09:31:09;;;;;;;4.68;1.38;;;22.40;99.90;;;;;;4967087;28;20061;-68
2023/10/17 09:33:43;;;;;;;2.38;1.20;;;23.10;99.90;;;;;;4967761;28;20066;-68
2023/10/17 09:36:09;;;;;;;4.28;1.35;;;23.50;99.90;;;;;;4966551;28;20046;-68
2023/10/17 09:38:41;;;;;;;4.25;1.20;;;23.90;99.90;;;;;;4968243;28;20093;-68
2023/10/17 09:41:08;;;;;;;2.50;1.15;;;24.00;99.90;;;;;;4966609;28;20053;-67
2023/10/17 09:43:36;;;;;;;2.35;0.80;;;24.40;99.90;;;;;;4966739;28;20124;-68
2023/10/17 09:46:03;;;;;;;7.57;2.13;;;25.20;99.90;;;;;;4967947;28;21440;-68
2023/10/17 09:48:34;;;;;;;4.20;1.10;;;25.20;99.90;;;;;;4967034;28;20070;-68
2023/10/17 09:51:02;;;;;;;4.53;0.73;;;25.30;99.90;;;;;;4967056;28;20059;-69
2023/10/17 09:53:32;;;;;;;2.55;0.95;;;25.50;99.90;;;;;;4966694;28;20042;-68
2023/10/17 09:56:06;;;;;;;2.67;0.65;;;26.40;99.90;;;;;;4967315;28;20701;-68
2023/10/17 09:58:36;;;;;;;2.05;0.57;;;27.80;99.90;;;;;;4967273;28;20045;-69
2023/10/17 10:01:10;;;;;;;2.17;0.90;;;26.40;99.90;;;;;;4966605;28;20050;-69
2023/10/17 10:03:37;;;;;;;7.35;1.45;;;27.10;99.90;;;;;;4951077;28;20038;-70
2023/10/17 10:06:21;;;;;;;5.03;0.75;;;25.70;99.90;;;;;;4966615;28;20516;-69
2023/10/17 10:08:47;;;;;;;3.35;0.50;;;;;;;;;;4966992;28;20065;-71
2023/10/17 10:11:14;;;;;;;1.50;0.40;;;20.40;99.90;;;;;;4966557;28;20077;-67
2023/10/17 10:14:03;;;;;;;3.80;0.73;;;18.90;99.90;;;;;;4966589;28;20053;-68
2023/10/17 10:16:49;;;;;;;1.88;0.70;;;17.70;99.90;;;;;;4964022;28;20497;-68
2023/10/17 10:19:16;;;;;;;5.45;0.85;;;;;;;;;;4966734;28;20042;-70
2023/10/17 10:21:54;;;;;;;1.90;0.47;;;;;;;;;;4965759;28;20046;-67
2023/10/17 10:24:26;;;;;;;4.15;0.80;;;15.90;99.90;;;;;;4966193;28;20047;-67
2023/10/17 10:29:44;;;;;;;1.92;1.23;;;;;;;;;;4965971;28;20055;-67
2023/10/17 10:32:25;;;;;;;1.55;0.70;;;;;;;;;;4965935;28;20146;-67
2023/10/17 10:34:52;;;;;;;2.97;1.00;;;;;;;;;;4965789;28;20050;-67
2023/10/17 10:37:20;;;;;;;5.15;1.00;;;13.70;99.90;;;;;;4967687;28;20090;-67
2023/10/17 10:40:10;;;;;;;5.28;1.30;;;13.60;99.90;;;;;;4967514;28;20129;-67
2023/10/17 10:42:43;;;;;;;3.47;1.08;;;;;;;;;;4962588;28;20035;-68
2023/10/17 10:45:23;;;;;;;3.75;1.10;;;;;;;;;;4966938;28;20042;-70
2023/10/17 10:47:51;;;;;;;1.83;0.82;;;;;;;;;;4962177;28;20067;-72
2023/10/17 10:50:20;;;;;;;3.28;0.90;;;;;;;;;;4966397;28;20050;-74
2023/10/17 10:52:46;;;;;;;3.78;1.05;;;;;;;;;;4965409;28;20069;-75
2023/10/17 10:55:14;;;;;;;2.22;1.05;;;;;;;;;;4965884;28;20176;-67
2023/10/17 10:57:40;;;;;;;4.32;0.80;;;;;;;;;;4964810;28;20042;-67
2023/10/17 11:00:08;;;;;;;3.88;1.30;;;;;;;;;;4965221;28;20104;-67
2023/10/17 11:02:36;;;;;;;1.52;0.90;;;;;;;;;;4967174;28;20125;-67
2023/10/17 11:05:02;;;;;;;3.28;1.08;;;;;;;;;;4965255;28;20047;-67
2023/10/17 11:07:33;;;;;;;3.20;0.98;;;;;;;;;;4965788;28;20043;-67
2023/10/17 11:10:03;;;;;;;2.03;0.63;;;;;;;;;;4965364;28;20047;-67
2023/10/17 11:12:30;;;;;;;0.98;0.80;;;;;;;;;;4965803;28;20099;-68
2023/10/17 11:15:28;;;;;;;1.92;1.02;;;;;;;;;;4966963;28;20563;-67
2023/10/17 11:18:03;;;;;;;5.85;1.25;;;;;;;;;;4942819;28;20055;-67
2023/10/17 11:20:29;;;;;;;5.45;1.50;;;;;;;;;;4965815;28;20551;-67
2023/10/17 11:22:55;;;;;;;1.48;0.80;;;12.30;99.90;;;;;;4964803;28;20054;-67
2023/10/17 11:25:26;;;;;;;3.42;1.27;;;;;;;;;;4965935;28;20071;-68
2023/10/17 11:28:06;;;;;;;5.38;2.03;;;12.30;99.90;;;;;;4967066;28;20049;-67
2023/10/17 11:30:34;;;;;;;3.33;1.25;;;;;;;;;;4963918;28;20142;-68
2023/10/17 11:33:02;;;;;;;1.73;0.85;;;12.90;99.90;;;;;;4965227;28;20416;-67
2023/10/17 11:35:32;;;;;;;1.65;0.77;;;;;;;;;;4966859;28;20043;-67
2023/10/17 11:37:58;;;;;;;2.10;0.95;;;;;;;;;;4965327;28;20047;-67
2023/10/17 11:40:54;;;;;;;5.90;1.08;;;;;;;;;;4965435;28;20105;-68
2023/10/17 11:43:28;;;;;;;3.05;1.17;;;;;;;;;;4965160;28;20046;-67
2023/10/17 11:45:54;;;;;;;2.97;1.00;;;;;;;;;;4965301;28;20070;-68
2023/10/17 11:48:26;;;;;;;3.67;1.23;;;12.40;99.90;;;;;;4962198;28;20054;-68
2023/10/17 11:51:03;;;;;;;5.03;1.00;;;;;;;;;;4964833;28;20039;-68
2023/10/17 11:53:30;;;;;;;4.32;0.73;;;;;;;;;;4965152;28;20117;-68
2023/10/17 11:55:56;;;;;;;6.43;1.13;;;;;;;;;;4965371;28;20054;-69
2023/10/17 11:58:25;;;;;;;2.17;0.77;;;;;;;;;;4963541;28;20038;-67
2023/10/17 12:00:54;;;;;;;3.88;0.70;;;;;;;;;;4966141;28;20416;-68
2023/10/17 12:03:20;;;;;;;5.88;1.45;;;;;;;;;;4966709;28;20039;-68
2023/10/17 12:05:46;;;;;;;2.13;1.20;;;12.50;99.90;;;;;;4968179;28;20047;-68
2023/10/17 12:08:22;;;;;;;4.40;0.98;;;;;;;;;;4968192;28;20051;-68
2023/10/17 12:10:53;;;;;;;1.27;0.75;;;;;;;;;;4965146;28;20050;-67
2023/10/17 12:13:19;;;;;;;3.45;1.25;;;;;;;;;;4968829;28;20417;-67
2023/10/17 12:15:45;;;;;;;1.33;0.82;;;12.70;99.90;;;;;;4970258;28;20100;-68
2023/10/17 12:18:12;;;;;;;3.40;0.82;;;12.50;99.90;;;;;;4970054;28;20042;-68
2023/10/17 12:20:40;;;;;;;4.20;1.38;;;;;;;;;;4968213;28;20054;-68
2023/10/17 12:23:10;;;;;;;3.60;1.15;;;;;;;;;;4968537;28;20520;-68
2023/10/17 12:25:42;;;;;;;1.90;0.73;;;;;;;;;;4968517;28;20073;-67
2023/10/17 12:28:08;;;;;;;1.42;1.02;;;;;;;;;;4970263;28;20054;-68
2023/10/17 12:30:39;;;;;;;2.88;0.73;;;;;;;;;;4971264;28;20053;-67
2023/10/17 12:33:05;;;;;;;3.75;1.05;;;;;;;;;;4968035;28;20046;-68
2023/10/17 12:35:31;;;;;;;4.90;1.10;;;12.50;99.90;;;;;;4968403;28;20179;-67
2023/10/17 12:37:59;;;;;;;4.63;1.10;;;;;;;;;;4969790;28;20580;-68
2023/10/17 12:40:25;;;;;;;1.63;1.00;;;;;;;;;;4969187;28;20156;-68
2023/10/17 12:42:52;;;;;;;4.20;1.30;;;12.40;99.90;;;;;;4968188;28;20511;-68
2023/10/17 12:45:19;;;;;;;5.80;1.05;;;;;;;;;;4967489;28;20425;-68
2023/10/17 12:47:45;;;;;;;3.00;1.05;;;;;;;;;;4952100;28;20058;-68
2023/10/17 12:50:23;;;;;;;5.18;1.00;;;12.40;99.90;;;;;;4969066;28;20077;-68
2023/10/17 12:52:49;;;;;;;5.57;1.30;;;;;;;;;;4967751;28;20057;-67
2023/10/17 12:55:19;;;;;;;2.33;1.10;;;;;;;;;;4967609;28;20389;-68
2023/10/17 12:57:45;;;;;;;2.38;1.13;;;;;;;;;;4964521;28;20047;-68
2023/10/17 13:00:11;;;;;;;3.60;1.48;;;;;;;;;;4967447;28;20532;-68
2023/10/17 13:02:40;;;;;;;4.35;1.35;;;;;;;;;;4967963;28;20045;-67
2023/10/17 13:05:10;;;;;;;3.90;1.17;;;;;;;;;;4966462;28;20077;-66
2023/10/17 13:07:37;;;;;;;4.32;1.17;;;;;;;;;;4968189;28;20042;-67
2023/10/17 13:10:03;;;;;;;3.65;1.10;;;;;;;;;;4966957;28;20372;-67
2023/10/17 13:12:30;;;;;;;2.30;1.27;;;;;;;;;;4967792;28;20051;-67
2023/10/17 13:14:56;;;;;;;3.58;1.05;;;;;;;;;;4967457;28;20516;-68
2023/10/17 13:17:22;;;;;;;2.22;1.00;;;;;;;;;;4966754;28;20795;-67
2023/10/17 13:19:51;;;;;;;5.15;1.67;;;;;;;;;;4966164;28;20061;-67
2023/10/17 13:22:17;;;;;;;3.30;1.13;;;;;;;;;;4967174;28;20829;-68
2023/10/17 13:24:45;;;;;;;1.52;1.42;;;;;;;;;;4967159;28;20067;-66
2023/10/17 13:27:11;;;;;;;1.45;1.05;;;;;;;;;;4963341;28;20097;-66
2023/10/17 13:29:38;;;;;;;2.50;1.20;;;;;;;;;;4966872;28;20046;-67
2023/10/17 13:32:07;;;;;;;5.30;1.35;;;;;;;;;;4966934;28;20062;-67
2023/10/17 13:34:36;;;;;;;3.40;1.58;;;;;;;;;;4959675;28;20043;-68
2023/10/17 13:37:05;;;;;;;5.45;1.58;;;;;;;;;;4966858;28;20070;-67
2023/10/17 13:39:32;;;;;;;3.58;1.40;;;;;;;;;;4947399;28;20105;-67
2023/10/17 13:41:58;;;;;;;5.93;1.33;;;;;;;;;;4967942;28;20054;-67
2023/10/17 13:44:24;;;;;;;4.05;1.20;;;12.30;99.90;;;;;;4968034;28;20039;-68
2023/10/17 13:46:51;;;;;;;3.67;1.15;;;;;;;;;;4968484;28;20515;-68
2023/10/17 13:49:17;;;;;;;3.30;1.13;;;;;;;;;;4942173;28;20383;-69
2023/10/17 13:51:46;;;;;;;2.75;1.25;;;;;;;;;;4966548;28;20055;-68
2023/10/17 13:54:13;;;;;;;5.70;1.10;;;;;;;;;;4966083;28;20046;-67
2023/10/17 13:56:40;;;;;;;3.30;1.27;;;;;;;;;;4966014;28;20042;-67
2023/10/17 13:59:09;;;;;;;3.30;1.20;;;;;;;;;;4966546;28;20047;-67
2023/10/17 14:01:41;;;;;;;3.08;1.40;;;;;;;;;;4966297;28;20065;-67
2023/10/17 14:04:09;;;;;;;3.50;1.23;;;;;;;;;;4967575;28;20046;-68
2023/10/17 14:06:39;;;;;;;3.42;1.30;;;;;;;;;;4964665;28;20128;-68
2023/10/17 14:09:14;;;;;;;3.08;1.52;;;;;;;;;;4966350;28;20062;-68
2023/10/17 14:11:41;;;;;;;2.80;1.48;;;;;;;;;;4965327;28;20052;-68
2023/10/17 14:14:07;;;;;;;5.13;1.48;;;;;;;;;;4967328;28;20077;-68
2023/10/17 14:16:40;;;;;;;6.53;1.52;;;;;;;;;;4965673;28;20053;-68
2023/10/17 14:19:13;;;;;;;3.40;1.40;;;11.60;99.90;;;;;;4965654;28;20116;-69
2023/10/17 14:21:41;;;;;;;1.90;1.27;;;;;;;;;;4965111;28;20078;-70
2023/10/17 14:24:10;;;;;;;3.80;1.65;;;;;;;;;;4965434;28;20059;-68
2023/10/17 14:26:36;;;;;;;3.95;1.65;;;;;;;;;;4965270;28;20062;-67
2023/10/17 14:29:03;;;;;;;5.00;1.13;;;;;;;;;;4965045;28;20465;-68
2023/10/17 14:31:29;;;;;;;1.95;0.90;;;;;;;;;;4966579;28;20043;-67
2023/10/17 14:34:00;;;;;;;2.13;1.25;;;;;;;;;;4965852;28;20405;-67
2023/10/17 14:36:29;;;;;;;2.92;1.20;;;12.00;99.90;;;;;;4964959;28;20174;-67
2023/10/17 14:38:55;;;;;;;4.47;1.60;;;;;;;;;;4965803;28;20042;-67
2023/10/17 14:41:23;;;;;;;8.43;1.58;;;12.00;99.90;;;;;;4949400;28;20057;-67
2023/10/17 14:43:52;;;;;;;3.25;1.25;;;;;;;;;;4965806;28;20055;-68
2023/10/17 14:46:22;;;;;;;4.20;1.13;;;;;;;;;;4966883;28;20043;-69
2023/10/17 14:48:48;;;;;;;4.15;1.25;;;;;;;;;;4966959;28;20058;-68
2023/10/17 14:51:14;;;;;;;2.97;1.70;;;;;;;;;;4965483;28;20046;-67
2023/10/17 14:53:42;;;;;;;3.42;1.58;;;;;;;;;;4966876;28;20122;-67
2023/10/17 14:56:12;;;;;;;9.60;1.77;;;;;;;;;;4966698;28;20122;-67
2023/10/17 14:58:40;;;;;;;2.55;1.30;;;;;;;;;;4967370;28;20684;-68
2023/10/17 15:01:07;;;;;;;2.75;1.33;;;;;;;;;;4962665;28;20050;-69
2023/10/17 15:03:33;;;;;;;2.78;1.05;;;;;;;;;;4967036;28;20050;-68
2023/10/17 15:06:01;;;;;;;3.83;1.35;;;;;;;;;;4965563;28;20054;-68
2023/10/17 15:08:27;;;;;;;4.90;1.30;;;;;;;;;;4965861;28;20130;-68
2023/10/17 15:10:54;;;;;;;2.50;1.10;;;;;;;;;;4965687;28;20082;-68
2023/10/17 15:13:20;;;;;;;6.15;1.83;;;;;;;;;;4965072;28;20512;-68
2023/10/17 15:15:47;;;;;;;3.33;1.17;;;11.90;99.90;;;;;;4966554;28;20404;-69
2023/10/17 15:18:14;;;;;;;3.05;1.30;;;;;;;;;;4964998;28;20062;-68
2023/10/17 15:20:40;;;;;;;2.03;1.27;;;;;;;;;;4965554;28;20092;-68
2023/10/17 15:23:05;;;;;;;2.42;1.17;;;11.90;99.90;;;;;;4964802;28;20097;-68
2023/10/17 15:25:31;;;;;;;4.25;1.25;;;11.90;99.90;;;;;;4965566;28;20126;-68
2023/10/17 15:27:57;;;;;;;2.10;1.23;;;;;;;;;;4964668;28;20098;-69
2023/10/17 15:30:23;;;;;;;2.97;1.58;;;;;;;;;;4961902;28;20059;-69
2023/10/17 15:32:50;;;;;;;3.75;1.30;;;;;;;;;;4965076;28;20055;-68
2023/10/17 15:35:15;;;;;;;2.90;1.20;;;11.60;99.90;;;;;;4965330;28;20046;-68
2023/10/17 15:37:48;;;;;;;2.53;1.30;;;;;;;;;;4965668;28;20393;-69
2023/10/17 15:40:21;;;;;;;7.90;1.23;;;;;;;;;;4969161;28;20046;-69
2023/10/17 15:42:48;;;;;;;2.45;1.40;;;11.50;99.90;;;;;;4967462;28;20517;-67
2023/10/17 15:45:15;;;;;;;1.83;1.40;;;;;;;;;;4968622;28;20679;-69
2023/10/17 15:47:49;;;;;;;2.05;1.13;;;;;;;;;;4970634;28;20045;-68
2023/10/17 15:50:18;;;;;;;2.90;1.23;;;;;;;;;;4968985;28;20151;-68
2023/10/17 15:52:51;;;;;;;4.07;1.50;;;;;;;;;;4968790;28;20054;-69
2023/10/17 15:55:17;;;;;;;4.65;1.30;;;;;;;;;;4970288;28;20039;-69
2023/10/17 15:57:44;;;;;;;4.18;1.48;;;;;;;;;;4952644;28;20137;-69
2023/10/17 16:00:19;;;;;;;6.03;1.50;;;;;;;;;;4967885;28;20046;-70
2023/10/17 16:02:46;;;;;;;6.50;1.63;;;;;;;;;;4968803;28;20452;-70
2023/10/17 16:05:15;;;;;;;4.13;1.85;;;;;;;;;;4969438;28;20493;-69
2023/10/17 16:07:42;;;;;;;4.05;1.40;;;;;;;;;;4969887;28;20089;-69
2023/10/17 16:10:16;;;;;;;3.15;1.90;;;;;;;;;;4967782;28;20042;-69
2023/10/17 16:12:42;;;;;;;3.90;1.50;;;;;;;;;;4968662;28;20121;-69
2023/10/17 16:15:09;;;;;;;4.57;1.40;;;;;;;;;;4968573;28;20058;-68
2023/10/17 16:17:35;;;;;;;2.67;1.70;;;;;;;;;;4968404;28;20572;-69
2023/10/17 16:20:06;;;;;;;4.95;1.40;;;10.40;99.90;;;;;;4952008;28;20123;-68
2023/10/17 16:22:35;;;;;;;3.58;1.60;;;;;;;;;;4952289;28;20047;-68
2023/10/17 16:25:07;;;;;;;4.85;1.80;;;;;;;;;;4968297;28;20142;-68
2023/10/17 16:27:34;;;;;;;6.20;1.67;;;;;;;;;;4968958;28;20050;-68
2023/10/17 16:30:01;;;;;;;4.13;1.83;;;;;;;;;;4969391;28;20097;-68
2023/10/17 16:32:29;;;;;;;3.03;1.33;;;10.00;99.90;;;;;;4969045;28;20039;-68
2023/10/17 16:34:55;;;;;;;3.33;1.67;;;;;;;;;;4969694;28;20101;-68
2023/10/17 16:37:21;;;;;;;3.55;1.23;;;;;;;;;;4967547;28;20185;-67
2023/10/17 16:39:47;;;;;;;5.28;2.50;;;10.00;99.90;;;;;;4969576;28;20043;-67
2023/10/17 16:42:14;;;;;;;8.43;1.55;;;;;;;;;;4969534;28;20042;-67
2023/10/17 16:44:40;;;;;;;2.85;1.52;;;;;;;;;;4969096;28;20117;-68
2023/10/17 16:47:06;;;;;;;4.13;1.83;;;;;;;;;;4967977;28;20057;-67
2023/10/17 16:49:33;;;;;;;3.40;1.95;;;;;;;;;;4968123;28;20046;-67
2023/10/17 16:52:02;;;;;;;7.35;2.25;;;;;;;;;;4967972;28;20390;-67
2023/10/17 16:54:31;;;;;;;4.47;2.20;;;;;;;;;;4967960;28;20090;-66
2023/10/17 16:56:58;;;;;;;2.97;2.35;;;;;;;;;;4967562;28;20190;-67
2023/10/17 16:59:25;;;;;;;4.07;1.92;;;;;;;;;;4951504;28;20050;-67
2023/10/17 17:01:53;;;;;;;7.05;2.38;;;;;;;;;;4968967;28;20544;-67